Time;durP1;ratioP1;P1;durP2;ratioP2;P2;SDS_P1;SDS_P2;PMS_P1;PMS_P2;Temp;Humidity;BMP_temperature;BMP_pressure;BME280_temperature;BME280_humidity;BME280_pressure;Samples;Min_cycle;Max_cycle;Signal;HPM_P1;HPM_P2
2022/05/28 00:00:25;;;;;;;5.50;5.20;;;;;;;23.13;91.21;99119.53;5007339;28;20701;-60
2022/05/28 00:02:52;;;;;;;6.53;6.13;;;;;;;23.13;91.41;99110.84;5007295;28;20379;-60
2022/05/28 00:05:19;;;;;;;6.00;5.60;;;;;;;23.09;91.39;99106.84;5004422;28;20220;-60
2022/05/28 00:07:47;;;;;;;6.73;6.30;;;;;;;23.11;91.04;99107.53;5002405;28;20238;-61
2022/05/28 00:10:18;;;;;;;6.93;6.33;;;;;;;23.09;90.84;99101.59;4991798;28;20206;-60
2022/05/28 00:12:47;;;;;;;5.80;5.43;;;;;;;23.06;90.91;99101.88;4992112;28;20756;-60
2022/05/28 00:15:14;;;;;;;5.20;4.90;;;;;;;23.05;90.86;99095.81;4990898;28;20679;-60
2022/05/28 00:17:41;;;;;;;8.90;6.63;;;;;;;23.02;91.04;99094.28;4991957;28;20223;-60
2022/05/28 00:20:10;;;;;;;6.13;5.63;;;;;;;23.01;91.49;99095.25;4991935;28;20209;-60
2022/05/28 00:22:38;;;;;;;5.97;5.47;;;;;;;22.99;91.14;99091.94;4991347;28;20220;-60
2022/05/28 00:25:07;;;;;;;6.13;5.60;;;;;;;22.98;90.81;99090.28;4990787;28;20202;-60
2022/05/28 00:27:34;;;;;;;7.77;6.03;;;;;;;22.93;90.71;99082.03;4990385;28;20587;-59
2022/05/28 00:30:03;;;;;;;6.43;5.97;;;;;;;22.90;91.38;99082.28;4991210;28;20591;-60
2022/05/28 00:32:29;;;;;;;6.53;6.00;;;;;;;22.92;91.29;99080.34;4991812;28;20213;-60
2022/05/28 00:34:56;;;;;;;6.63;6.23;;;;;;;22.84;91.18;99067.09;4991492;28;20700;-60
2022/05/28 00:37:23;;;;;;;6.87;6.27;;;;;;;22.87;91.08;99077.31;4991240;28;20252;-60
2022/05/28 00:39:50;;;;;;;5.93;5.50;;;;;;;22.86;89.78;99075.66;4990186;28;20213;-60
2022/05/28 00:42:17;;;;;;;6.43;5.77;;;;;;;22.83;90.42;99088.16;4988201;28;20591;-60
2022/05/28 00:44:44;;;;;;;7.77;7.00;;;;;;;22.80;89.84;99084.03;4989621;28;20212;-61
2022/05/28 00:47:13;;;;;;;12.80;6.50;;;;;;;22.76;90.23;99080.00;4989477;28;20209;-60
2022/05/28 00:49:40;;;;;;;7.47;6.97;;;;;;;22.64;89.73;99069.75;4990087;28;20201;-60
2022/05/28 00:52:08;;;;;;;6.93;6.27;;;;;;;22.68;89.74;99079.81;4989614;28;20663;-60
2022/05/28 00:54:39;;;;;;;6.30;5.87;;;;;;;22.60;89.95;99068.34;4990576;28;20684;-60
2022/05/28 00:57:08;;;;;;;5.67;5.37;;;;;;;22.61;89.87;99081.28;4990749;28;20209;-60
2022/05/28 00:59:36;;;;;;;5.77;5.47;;;;;;;22.46;89.44;99056.44;4991486;28;20207;-61
2022/05/28 01:02:10;;;;;;;7.17;5.60;;;;;;;22.49;89.69;99072.69;4990776;28;20203;-60
2022/05/28 01:04:45;;;;;;;5.77;5.37;;;;;;;22.46;89.33;99077.34;4989273;28;20200;-60
2022/05/28 01:07:22;;;;;;;6.87;6.17;;;;;;;22.42;90.14;99071.53;4990904;28;20197;-60
2022/05/28 01:09:58;;;;;;;6.47;6.07;;;;;;;22.36;90.16;99076.44;5010813;28;20210;-60
2022/05/28 01:12:34;;;;;;;5.73;5.37;;;;;;;22.35;90.18;99080.03;5010270;28;20213;-60
2022/05/28 01:15:07;;;;;;;5.70;5.37;;;;;;;22.29;90.36;99075.31;5010566;28;20207;-60
2022/05/28 01:17:40;;;;;;;6.23;5.83;;;;;;;22.26;90.45;99075.59;5010039;28;20207;-60
2022/05/28 01:20:14;;;;;;;6.70;5.87;;;;;;;22.22;90.77;99074.16;5010474;28;20204;-62
2022/05/28 01:23:16;;;;;;;6.57;6.00;;;;;;;22.06;91.98;99073.78;5010540;28;20211;-60
2022/05/28 01:25:56;;;;;;;5.87;5.37;;;;;;;21.48;95.95;99070.66;4965199;28;20206;-60
2022/05/28 01:28:28;;;;;;;6.47;6.00;;;;;;;21.15;99.66;99081.13;5009774;28;20224;-60
2022/05/28 01:30:55;;;;;;;6.93;6.23;;;;;;;21.21;99.23;99076.28;5010570;28;20214;-60
2022/05/28 01:33:23;;;;;;;12.23;7.00;;;;;;;21.07;99.50;99067.81;5009927;28;20241;-60
2022/05/28 01:35:51;;;;;;;6.17;5.67;;;;;;;21.17;100.00;99076.63;5008207;28;20202;-60
2022/05/28 01:38:20;;;;;;;7.00;6.30;;;;;;;21.16;100.00;99072.38;5009264;28;20199;-60
2022/05/28 01:40:48;;;;;;;11.13;7.30;;;;;;;21.05;100.00;99077.56;5008992;28;20203;-59
2022/05/28 01:43:18;;;;;;;6.47;6.07;;;;;;;21.04;100.00;99086.31;5010065;28;20213;-60
2022/05/28 01:45:49;;;;;;;6.87;6.37;;;;;;;21.07;100.00;99088.69;5010434;28;20206;-60
2022/05/28 01:48:19;;;;;;;7.30;6.80;;;;;;;21.02;100.00;99080.41;5010350;28;20658;-60
2022/05/28 01:50:49;;;;;;;8.17;7.57;;;;;;;20.93;100.00;99082.78;5010294;28;20213;-60
2022/05/28 01:56:02;;;;;;;7.40;6.70;;;;;;;20.71;100.00;99077.56;5009050;28;20211;-60
2022/05/28 01:58:30;;;;;;;8.13;7.53;;;;;;;20.77;100.00;99065.84;5010152;28;20598;-61
2022/05/28 02:01:00;;;;;;;7.43;6.93;;;;;;;20.68;100.00;99046.53;5009982;28;20205;-60
2022/05/28 02:03:27;;;;;;;8.40;7.67;;;;;;;20.76;100.00;99053.75;5009629;28;20198;-60
2022/05/28 02:05:54;;;;;;;8.10;6.63;;;;;;;20.81;100.00;99062.03;5010052;28;20571;-60
2022/05/28 02:08:21;;;;;;;7.80;7.20;;;;;;;20.86;100.00;99059.91;5009541;28;20717;-60
2022/05/28 02:10:56;;;;;;;8.03;7.33;;;;;;;20.89;100.00;99057.91;5009872;28;20226;-60
2022/05/28 02:13:26;;;;;;;7.83;7.13;;;;;;;20.97;100.00;99061.72;5009617;28;20270;-60
2022/05/28 02:16:01;;;;;;;7.97;7.43;;;;;;;20.98;100.00;99064.16;5009616;28;20725;-60
2022/05/28 02:18:36;;;;;;;8.97;7.77;;;;;;;21.03;100.00;99058.63;5008866;28;20590;-60
2022/05/28 02:21:06;;;;;;;8.73;7.97;;;;;;;21.03;100.00;99062.06;5008234;28;20248;-60
2022/05/28 02:23:40;;;;;;;7.23;6.60;;;;;;;20.99;100.00;99065.00;5008513;28;20190;-60
2022/05/28 02:26:10;;;;;;;8.60;7.90;;;;;;;21.02;100.00;99069.97;5013143;28;20210;-60
2022/05/28 02:28:37;;;;;;;8.40;7.80;;;;;;;21.06;100.00;99071.41;5009801;28;20688;-60
2022/05/28 02:31:14;;;;;;;7.53;6.60;;;;;;;21.04;100.00;99068.06;5011156;28;20210;-60
2022/05/28 02:33:42;;;;;;;11.57;8.93;;;;;;;20.99;100.00;99059.78;5010326;28;20636;-60
2022/05/28 02:36:09;;;;;;;8.53;7.77;;;;;;;21.12;100.00;99087.44;5012053;28;20207;-59
2022/05/28 02:38:36;;;;;;;7.87;7.27;;;;;;;21.12;100.00;99084.00;5012108;28;20208;-60
2022/05/28 02:41:02;;;;;;;7.53;6.93;;;;;;;21.11;100.00;99085.75;5012188;28;22579;-60
2022/05/28 02:43:31;;;;;;;7.20;6.70;;;;;;;21.13;100.00;99083.03;5013343;28;20191;-60
2022/05/28 02:45:58;;;;;;;7.87;7.13;;;;;;;21.11;100.00;99093.56;5011800;28;20662;-60
2022/05/28 02:48:27;;;;;;;7.90;7.10;;;;;;;21.10;100.00;99098.94;5011308;28;20206;-60
2022/05/28 02:50:54;;;;;;;7.03;6.53;;;;;;;21.09;100.00;99102.44;5013018;28;20210;-60
2022/05/28 02:53:21;;;;;;;7.30;6.70;;;;;;;20.91;100.00;99074.25;5012813;28;20253;-60
2022/05/28 02:55:47;;;;;;;8.47;7.57;;;;;;;20.99;100.00;99076.25;5013063;28;20662;-60
2022/05/28 02:58:15;;;;;;;7.57;6.97;;;;;;;21.04;100.00;99074.13;5011375;28;20215;-60
2022/05/28 03:00:42;;;;;;;7.90;7.03;;;;;;;21.07;100.00;99070.44;5008368;28;20711;-59
2022/05/28 03:03:09;;;;;;;7.70;7.00;;;;;;;21.09;100.00;99071.16;5007138;28;20215;-60
2022/05/28 03:05:37;;;;;;;9.30;7.20;;;;;;;21.10;100.00;99089.31;5005816;28;20202;-60
2022/05/28 03:08:04;;;;;;;7.30;6.80;;;;;;;21.11;100.00;99087.53;5008225;28;20702;-60
2022/05/28 03:10:31;;;;;;;7.70;7.20;;;;;;;21.09;100.00;99095.50;5010270;28;20199;-60
2022/05/28 03:12:58;;;;;;;8.80;6.57;;;;;;;21.08;100.00;99090.34;5012846;28;20621;-60
2022/05/28 03:15:25;;;;;;;7.30;6.80;;;;;;;21.01;100.00;99090.00;5012117;28;20283;-60
2022/05/28 03:17:52;;;;;;;9.23;7.37;;;;;;;21.06;100.00;99095.69;5012712;28;20585;-60
2022/05/28 03:20:19;;;;;;;7.27;6.77;;;;;;;21.01;100.00;99104.78;5012266;28;20202;-60
2022/05/28 03:22:47;;;;;;;8.07;7.47;;;;;;;21.02;100.00;99106.47;5009378;28;20204;-60
2022/05/28 03:25:14;;;;;;;8.13;7.53;;;;;;;21.00;100.00;99105.78;5008279;28;20211;-59
2022/05/28 03:27:41;;;;;;;8.40;7.70;;;;;;;20.98;100.00;99105.03;5009738;28;20198;-60
2022/05/28 03:30:09;;;;;;;8.20;7.23;;;;;;;20.86;100.00;99085.97;5008417;28;20199;-60
2022/05/28 03:32:36;;;;;;;8.33;7.63;;;;;;;20.95;100.00;99117.38;5012271;28;20209;-60
2022/05/28 03:35:03;;;;;;;8.27;7.53;;;;;;;20.95;100.00;99132.16;5009932;28;20225;-60
2022/05/28 03:37:30;;;;;;;9.47;8.57;;;;;;;20.93;100.00;99132.31;5011091;28;20202;-60
2022/05/28 03:39:58;;;;;;;9.63;8.57;;;;;;;20.91;100.00;99126.38;5012295;28;20210;-60
2022/05/28 03:42:25;;;;;;;9.00;8.40;;;;;;;20.93;100.00;99129.69;5011166;28;20203;-60
2022/05/28 03:44:52;;;;;;;8.07;7.47;;;;;;;20.92;100.00;99135.84;5010866;28;20194;-60
2022/05/28 03:47:19;;;;;;;9.87;7.77;;;;;;;20.96;100.00;99131.22;5008544;28;20224;-60
2022/05/28 03:49:46;;;;;;;8.37;7.57;;;;;;;20.98;100.00;99142.34;5009598;28;20203;-60
2022/05/28 03:52:14;;;;;;;8.90;8.13;;;;;;;21.01;100.00;99146.50;5007379;28;20198;-60
2022/05/28 03:54:43;;;;;;;8.17;7.67;;;;;;;20.99;100.00;99153.63;5010658;28;20233;-60
2022/05/28 03:57:15;;;;;;;10.77;7.33;;;;;;;21.00;100.00;99150.06;5011217;28;20209;-60
2022/05/28 03:59:42;;;;;;;11.90;8.37;;;;;;;21.05;100.00;99158.34;5010428;28;20195;-60
2022/05/28 04:02:11;;;;;;;10.00;8.90;;;;;;;21.11;100.00;99153.53;5011209;28;20204;-60
2022/05/28 04:04:38;;;;;;;8.10;7.50;;;;;;;21.11;100.00;99142.28;5011500;28;20664;-60
2022/05/28 04:07:05;;;;;;;9.23;8.47;;;;;;;21.34;100.00;99147.38;5011164;28;20198;-60
2022/05/28 04:09:32;;;;;;;8.17;7.57;;;;;;;21.40;100.00;99146.03;5011377;28;20223;-60
2022/05/28 04:11:59;;;;;;;10.07;7.80;;;;;;;21.56;100.00;99154.31;5011598;28;20204;-60
2022/05/28 04:14:28;;;;;;;9.10;8.37;;;;;;;21.71;100.00;99167.97;5010865;28;20241;-60
2022/05/28 04:16:54;;;;;;;8.63;7.83;;;;;;;21.74;100.00;99178.97;5011876;28;20645;-60
2022/05/28 04:19:22;;;;;;;8.33;7.70;;;;;;;21.84;100.00;99172.03;5011171;28;20602;-60
2022/05/28 04:21:49;;;;;;;7.97;7.43;;;;;;;21.93;100.00;99173.16;5011288;28;20216;-60
2022/05/28 04:24:16;;;;;;;7.93;7.27;;;;;;;22.06;100.00;99173.00;5011384;28;20192;-60
2022/05/28 04:26:43;;;;;;;8.23;7.67;;;;;;;22.09;100.00;99157.06;5011154;28;20219;-60
2022/05/28 04:29:10;;;;;;;7.73;7.03;;;;;;;22.25;100.00;99157.47;5011217;28;20199;-60
2022/05/28 04:31:38;;;;;;;7.53;6.83;;;;;;;22.40;99.60;99145.75;5009182;28;20217;-61
2022/05/28 04:34:05;;;;;;;7.23;6.83;;;;;;;22.57;98.68;99153.03;5007900;28;20225;-60
2022/05/28 04:36:32;;;;;;;7.43;6.83;;;;;;;22.75;99.14;99156.75;5013034;28;20197;-61
2022/05/28 04:38:59;;;;;;;8.77;8.03;;;;;;;22.91;97.69;99146.66;5011438;28;20213;-60
2022/05/28 04:41:26;;;;;;;10.53;7.83;;;;;;;23.05;96.89;99147.28;5011159;28;20206;-60
2022/05/28 04:43:53;;;;;;;9.67;7.73;;;;;;;23.11;95.97;99146.75;5010871;28;20203;-60
2022/05/28 04:46:20;;;;;;;8.63;7.93;;;;;;;23.10;96.37;99135.47;5011206;28;20217;-60
2022/05/28 04:48:48;;;;;;;12.97;7.33;;;;;;;23.20;96.97;99146.78;5010604;28;20210;-61
2022/05/28 04:51:15;;;;;;;7.57;7.17;;;;;;;23.27;96.60;99142.69;5009301;28;20205;-60
2022/05/28 04:53:42;;;;;;;6.87;6.23;;;;;;;23.41;94.95;99144.16;5009199;28;20532;-61
2022/05/28 04:56:09;;;;;;;6.87;6.20;;;;;;;23.52;93.15;99141.44;5008966;28;20720;-60
2022/05/28 04:58:36;;;;;;;7.27;6.73;;;;;;;23.70;91.63;99139.81;5009274;28;20212;-60
2022/05/28 05:01:03;;;;;;;6.73;6.33;;;;;;;23.89;92.48;99137.22;5008590;28;20202;-60
2022/05/28 05:03:32;;;;;;;7.30;6.60;;;;;;;23.90;91.20;99133.66;5005523;28;20201;-60
2022/05/28 05:06:00;;;;;;;6.63;6.13;;;;;;;24.09;90.57;99137.22;5010709;28;20202;-60
2022/05/28 05:08:27;;;;;;;5.53;5.13;;;;;;;24.12;89.22;99124.72;5010597;28;20232;-61
2022/05/28 05:10:54;;;;;;;9.67;5.93;;;;;;;24.24;88.90;99138.47;5010772;28;20214;-61
2022/05/28 05:13:21;;;;;;;5.67;5.37;;;;;;;24.34;88.88;99145.38;5010705;28;20214;-61
2022/05/28 05:15:48;;;;;;;6.37;5.97;;;;;;;24.32;87.73;99105.41;5009061;28;20218;-61
2022/05/28 05:18:15;;;;;;;6.50;6.00;;;;;;;24.60;85.99;99135.13;5009401;28;20224;-60
2022/05/28 05:20:42;;;;;;;6.83;6.23;;;;;;;24.65;85.78;99138.19;5009720;28;20202;-61
2022/05/28 05:23:10;;;;;;;6.73;6.13;;;;;;;24.67;86.86;99131.00;5009378;28;20209;-60
2022/05/28 05:25:37;;;;;;;5.87;5.37;;;;;;;24.63;85.34;99142.72;5008865;28;20201;-60
2022/05/28 05:28:05;;;;;;;6.67;6.20;;;;;;;24.73;84.24;99143.53;5008746;28;20198;-60
2022/05/28 05:30:32;;;;;;;5.70;5.20;;;;;;;24.71;83.68;99116.63;5008761;28;20210;-61
2022/05/28 05:32:59;;;;;;;5.60;4.73;;;;;;;25.03;82.83;99142.50;5009213;28;20655;-60
2022/05/28 05:35:25;;;;;;;5.20;4.90;;;;;;;25.23;85.44;99153.75;5008753;28;20213;-60
2022/05/28 05:37:52;;;;;;;5.23;4.90;;;;;;;25.50;81.13;99156.41;5009737;28;20206;-61
2022/05/28 05:40:20;;;;;;;12.23;6.53;;;;;;;25.76;79.17;99157.34;5009712;28;21409;-60
2022/05/28 05:42:48;;;;;;;7.03;6.33;;;;;;;25.94;80.03;99154.75;5009450;28;20202;-61
2022/05/28 05:45:15;;;;;;;5.77;5.43;;;;;;;26.24;77.01;99162.28;5009457;28;20206;-64
2022/05/28 05:47:42;;;;;;;5.30;4.90;;;;;;;26.51;75.38;99153.47;5004519;28;20209;-61
2022/05/28 05:50:10;;;;;;;5.97;5.47;;;;;;;26.78;74.24;99171.75;5008110;28;20202;-61
2022/05/28 05:52:36;;;;;;;6.37;5.77;;;;;;;26.80;72.86;99161.88;5009463;28;20200;-61
2022/05/28 05:55:04;;;;;;;5.93;5.17;;;;;;;26.93;72.03;99164.13;5008960;28;20594;-60
2022/05/28 05:57:32;;;;;;;6.10;5.57;;;;;;;27.12;71.19;99167.38;5008685;28;20225;-61
2022/05/28 05:59:59;;;;;;;5.10;4.80;;;;;;;27.15;70.52;99179.38;5009656;28;20209;-60
2022/05/28 06:02:26;;;;;;;5.33;4.93;;;;;;;27.07;70.02;99182.81;5009052;28;20687;-60
2022/05/28 06:04:53;;;;;;;5.10;4.80;;;;;;;27.02;69.43;99190.34;5009059;28;20225;-61
2022/05/28 06:07:20;;;;;;;5.33;4.87;;;;;;;26.98;70.82;99193.44;5008376;28;20756;-60
2022/05/28 06:09:47;;;;;;;5.03;4.60;;;;;;;26.95;71.33;99189.31;5009240;28;20237;-61
2022/05/28 06:12:14;;;;;;;5.60;5.17;;;;;;;26.95;71.15;99189.31;5009278;28;20276;-60
2022/05/28 06:14:42;;;;;;;5.43;4.37;;;;;;;27.02;71.19;99189.50;5008861;28;20226;-60
2022/05/28 06:17:09;;;;;;;5.90;5.50;;;;;;;27.09;70.79;99188.75;5009421;28;20681;-60
2022/05/28 06:19:36;;;;;;;5.37;4.73;;;;;;;27.31;69.67;99189.16;5008920;28;20213;-60
2022/05/28 06:22:03;;;;;;;5.43;4.67;;;;;;;27.56;67.39;99183.88;5009810;28;20571;-60
2022/05/28 06:24:30;;;;;;;5.33;4.80;;;;;;;27.69;64.17;99188.69;5007582;28;20202;-61
2022/05/28 06:27:01;;;;;;;4.87;4.50;;;;;;;27.92;67.27;99187.13;5007602;28;21968;-61
2022/05/28 06:29:28;;;;;;;12.50;4.67;;;;;;;28.10;65.85;99190.50;5007352;28;20209;-60
2022/05/28 06:31:56;;;;;;;6.97;4.63;;;;;;;28.21;65.70;99196.44;5007855;28;20210;-60
2022/05/28 06:34:23;;;;;;;5.30;4.27;;;;;;;28.17;63.90;99192.47;5007468;28;20202;-61
2022/05/28 06:36:50;;;;;;;5.50;5.00;;;;;;;27.94;65.96;99182.53;5006380;28;20217;-61
2022/05/28 06:39:17;;;;;;;4.60;4.20;;;;;;;27.89;65.34;99202.41;5007947;28;20263;-61
2022/05/28 06:41:44;;;;;;;5.53;4.97;;;;;;;27.96;65.65;99191.06;5007970;28;20678;-60
2022/05/28 06:44:11;;;;;;;4.50;4.10;;;;;;;28.06;67.43;99194.44;5006928;28;20206;-60
2022/05/28 06:46:38;;;;;;;6.03;4.93;;;;;;;28.14;65.57;99199.69;5009218;28;20202;-61
2022/05/28 06:49:06;;;;;;;8.90;5.53;;;;;;;28.07;64.92;99198.72;5007795;28;20202;-62
2022/05/28 06:51:33;;;;;;;6.27;5.33;;;;;;;28.32;65.64;99188.19;5009153;28;20994;-61
2022/05/28 06:54:00;;;;;;;4.90;4.23;;;;;;;28.49;69.14;99188.03;5008048;28;20203;-60
2022/05/28 06:56:27;;;;;;;6.18;5.60;;;;;;;28.89;64.05;99187.19;5008741;28;20457;-62
2022/05/28 06:58:54;;;;;;;5.87;5.07;;;;;;;29.10;62.51;99181.38;5010366;28;20293;-61
2022/05/28 07:01:20;;;;;;;6.10;5.70;;;;;;;29.33;61.29;99166.50;5013119;28;20198;-62
2022/05/28 07:03:47;;;;;;;5.23;4.83;;;;;;;29.49;60.09;99160.31;5013700;28;20637;-62
2022/05/28 07:06:16;;;;;;;5.77;5.07;;;;;;;29.79;59.77;99151.53;5013955;28;20201;-62
2022/05/28 07:08:43;;;;;;;5.67;5.27;;;;;;;29.85;58.65;99150.91;5013822;28;20232;-62
2022/05/28 07:11:10;;;;;;;6.03;4.97;;;;;;;29.74;58.14;99132.75;5013406;28;20198;-61
2022/05/28 07:13:38;;;;;;;4.80;4.60;;;;;;;29.90;58.37;99148.56;5013933;28;20200;-62
2022/05/28 07:16:06;;;;;;;5.53;4.63;;;;;;;29.94;59.57;99134.00;5012176;28;20210;-63
2022/05/28 07:18:32;;;;;;;10.63;5.60;;;;;;;30.18;60.67;99147.00;5013867;28;20615;-62
2022/05/28 07:20:59;;;;;;;6.03;4.37;;;;;;;30.52;59.81;99140.50;5013372;28;20210;-62
2022/05/28 07:23:30;;;;;;;4.37;4.13;;;;;;;30.74;59.12;99142.25;5012903;28;20202;-62
2022/05/28 07:26:04;;;;;;;5.53;5.13;;;;;;;30.83;56.83;99141.16;5012325;28;20225;-62
2022/05/28 07:28:33;;;;;;;5.63;5.00;;;;;;;30.84;57.34;99136.69;5013672;28;20209;-62
2022/05/28 07:31:02;;;;;;;4.93;4.53;;;;;;;30.60;57.91;99119.22;5013105;28;20612;-62
2022/05/28 07:33:30;;;;;;;5.22;4.72;;;;;;;30.54;59.07;99114.66;5013536;28;20674;-62
2022/05/28 07:35:58;;;;;;;5.05;4.68;;;;;;;30.36;59.77;99106.22;5013352;28;20233;-62
2022/05/28 07:38:30;;;;;;;4.90;4.50;;;;;;;30.30;59.77;99102.47;5013453;28;20598;-62
2022/05/28 07:41:02;;;;;;;8.57;5.07;;;;;;;30.21;58.99;99099.06;5013217;28;20667;-62
2022/05/28 07:43:29;;;;;;;6.70;5.03;;;;;;;30.17;62.55;99083.75;5013201;28;20578;-62
2022/05/28 07:45:56;;;;;;;5.10;4.60;;;;;;;30.24;59.43;99087.31;5013310;28;20574;-62
2022/05/28 07:48:22;;;;;;;9.63;6.63;;;;;;;30.16;60.91;99075.00;5012947;28;20202;-62
2022/05/28 07:50:49;;;;;;;7.53;5.80;;;;;;;30.01;58.45;99073.31;5013106;28;20210;-61
2022/05/28 07:53:17;;;;;;;5.33;5.03;;;;;;;29.70;59.68;99068.03;5012721;28;20609;-62
2022/05/28 07:55:45;;;;;;;11.23;5.23;;;;;;;29.28;63.39;99043.88;5013008;28;20240;-62
2022/05/28 07:58:14;;;;;;;5.23;4.53;;;;;;;28.92;62.59;99046.19;5012641;28;20213;-61
2022/05/28 08:00:43;;;;;;;5.57;4.95;;;;;;;28.72;64.59;99040.50;5007369;28;20457;-66
2022/05/28 08:03:11;;;;;;;6.80;6.23;;;;;;;28.72;65.65;99045.75;5010865;28;20198;-65
2022/05/28 08:05:40;;;;;;;4.93;4.53;;;;;;;28.59;65.54;99034.88;5006370;28;20199;-66
2022/05/28 08:08:08;;;;;;;5.75;5.25;;;;;;;28.77;64.97;99043.44;5007142;28;20943;-62
2022/05/28 08:10:35;;;;;;;5.20;4.80;;;;;;;29.11;65.00;99041.28;5010836;28;20202;-62
2022/05/28 08:13:05;;;;;;;5.90;5.40;;;;;;;29.49;62.13;99044.91;5012382;28;20292;-62
2022/05/28 08:15:32;;;;;;;8.37;5.40;;;;;;;29.58;62.35;99043.03;5012775;28;20225;-62
2022/05/28 08:17:59;;;;;;;5.07;4.67;;;;;;;29.79;62.80;99024.69;5012889;28;20205;-62
2022/05/28 08:23:10;;;;;;;7.03;5.37;;;;;;;29.99;60.66;99025.88;5009439;28;20288;-62
2022/05/28 08:25:37;;;;;;;5.00;4.70;;;;;;;30.10;60.33;99029.94;5012635;28;20198;-62
2022/05/28 08:28:05;;;;;;;6.50;5.83;;;;;;;30.03;59.69;99016.59;5013087;28;20221;-62
2022/05/28 08:30:32;;;;;;;6.13;5.60;;;;;;;30.16;59.57;99023.91;5011795;28;20206;-62
2022/05/28 08:32:59;;;;;;;7.67;5.30;;;;;;;30.24;58.94;99023.03;5012722;28;20209;-62
2022/05/28 08:35:26;;;;;;;8.50;6.17;;;;;;;30.39;58.62;99015.91;5010330;28;20214;-62
2022/05/28 08:37:53;;;;;;;6.43;5.80;;;;;;;30.52;59.29;99016.16;5010981;28;20209;-62
2022/05/28 08:40:20;;;;;;;7.03;6.18;;;;;;;30.48;61.98;99020.97;5012130;28;20214;-62
2022/05/28 08:42:47;;;;;;;6.27;5.87;;;;;;;30.31;65.43;99003.59;5006829;28;20202;-62
2022/05/28 08:45:17;;;;;;;6.20;5.60;;;;;;;30.05;64.68;99016.44;5012408;28;20254;-62
2022/05/28 08:47:48;;;;;;;5.57;5.27;;;;;;;29.91;65.12;99007.47;5012170;28;20205;-62
2022/05/28 08:50:16;;;;;;;5.77;5.37;;;;;;;29.91;64.69;99002.19;5013635;28;20271;-63
2022/05/28 08:52:47;;;;;;;6.47;5.50;;;;;;;30.07;64.76;98991.47;5011476;28;20205;-62
2022/05/28 08:55:18;;;;;;;5.93;5.60;;;;;;;30.05;61.89;99008.50;5011163;28;20210;-62
2022/05/28 08:57:53;;;;;;;8.37;5.80;;;;;;;30.00;63.73;99000.28;5009514;28;20213;-62
2022/05/28 09:00:39;;;;;;;6.97;6.47;;;;;;;30.16;63.43;99000.94;5011918;28;20582;-62
2022/05/28 09:03:10;;;;;;;6.25;5.68;;;;;;;30.38;61.52;98987.81;5008410;28;20685;-63
2022/05/28 09:05:47;;;;;;;5.87;5.50;;;;;;;30.52;60.91;99001.09;5011121;28;20194;-63
2022/05/28 09:08:16;;;;;;;5.30;4.80;;;;;;;30.15;60.61;98988.72;5008931;28;20624;-63
2022/05/28 09:10:47;;;;;;;8.17;5.73;;;;;;;29.77;61.30;98984.44;5011739;28;20595;-63
2022/05/28 09:13:22;;;;;;;5.37;5.03;;;;;;;29.32;61.85;98973.88;5012036;28;20662;-63
2022/05/28 09:15:51;;;;;;;6.23;5.70;;;;;;;29.31;64.34;98977.50;5011617;28;20224;-63
2022/05/28 09:18:18;;;;;;;5.73;5.23;;;;;;;29.53;62.08;98971.44;5011957;28;20586;-63
2022/05/28 09:20:47;;;;;;;6.07;5.57;;;;;;;29.45;62.31;98963.56;5010839;28;20706;-62
2022/05/28 09:23:15;;;;;;;5.33;5.03;;;;;;;29.88;62.75;98968.19;5010845;28;20234;-63
2022/05/28 09:25:50;;;;;;;6.47;5.20;;;;;;;29.55;59.63;98980.00;5010024;28;20194;-63
2022/05/28 09:28:36;;;;;;;4.57;4.17;;;;;;;29.84;58.67;98980.09;5008913;28;20208;-62
2022/05/28 09:31:12;;;;;;;5.30;4.87;;;;;;;30.06;57.81;98983.69;5011576;28;20198;-62
2022/05/28 09:33:55;;;;;;;4.43;4.00;;;;;;;30.13;57.83;98969.59;5011587;28;20575;-64
2022/05/28 09:36:31;;;;;;;5.20;4.33;;;;;;;30.33;57.42;98975.16;5007079;28;20244;-62
2022/05/28 09:39:05;;;;;;;5.93;5.40;;;;;;;30.08;58.35;98974.56;5010052;28;20211;-62
2022/05/28 09:41:57;;;;;;;4.67;4.37;;;;;;;29.75;59.27;98973.22;5011578;28;20208;-63
2022/05/28 09:44:36;;;;;;;5.00;4.37;;;;;;;29.68;59.27;98982.84;5007291;28;20292;-62
2022/05/28 09:47:13;;;;;;;5.10;4.70;;;;;;;29.77;59.17;98973.03;5006255;28;20194;-62
2022/05/28 09:49:51;;;;;;;4.40;4.00;;;;;;;29.98;58.66;98976.69;5007741;28;20641;-62
2022/05/28 09:52:25;;;;;;;3.87;3.67;;;;;;;29.60;56.00;98973.16;5010462;28;20202;-62
2022/05/28 09:54:51;;;;;;;4.23;3.87;;;;;;;29.28;57.01;98972.59;5011018;28;20198;-62
2022/05/28 09:57:26;;;;;;;4.10;3.70;;;;;;;29.42;56.57;98969.19;5011169;28;20218;-63
2022/05/28 09:59:59;;;;;;;4.73;4.00;;;;;;;29.43;57.25;98971.66;5009822;28;20578;-63
2022/05/28 10:02:29;;;;;;;4.77;4.37;;;;;;;29.27;57.33;98978.88;5011219;28;20297;-62
2022/05/28 10:04:58;;;;;;;4.93;3.87;;;;;;;29.21;57.53;98966.34;5010071;28;20214;-63
2022/05/28 10:07:31;;;;;;;5.27;4.10;;;;;;;28.98;56.79;98966.31;5011285;28;20289;-63
2022/05/28 10:09:58;;;;;;;4.73;4.27;;;;;;;28.71;57.79;98949.13;5009320;28;20206;-62
2022/05/28 10:12:27;;;;;;;4.87;3.90;;;;;;;28.80;57.43;98953.38;5011251;28;20662;-62
2022/05/28 10:15:07;;;;;;;4.20;3.87;;;;;;;28.77;58.40;98959.00;5010734;28;21699;-62
2022/05/28 10:17:36;;;;;;;4.33;4.03;;;;;;;28.68;59.17;98967.94;5007575;28;20256;-62
2022/05/28 10:20:14;;;;;;;5.90;4.57;;;;;;;28.77;58.94;98974.81;5007866;28;20669;-62
2022/05/28 10:22:41;;;;;;;3.93;3.73;;;;;;;28.68;58.55;98978.50;5005976;28;20194;-62
2022/05/28 10:25:23;;;;;;;4.00;3.70;;;;;;;28.55;58.93;98986.09;5011314;28;20204;-62
2022/05/28 10:27:52;;;;;;;4.00;3.67;;;;;;;28.60;59.08;98981.13;5011182;28;20210;-62
2022/05/28 10:30:26;;;;;;;4.50;4.20;;;;;;;28.64;59.09;98991.19;5010797;28;20202;-62
2022/05/28 10:32:55;;;;;;;4.07;3.80;;;;;;;28.84;59.40;98993.44;5011063;28;20206;-62
2022/05/28 10:35:25;;;;;;;5.07;4.67;;;;;;;28.61;58.68;98986.25;5012048;28;20210;-62
2022/05/28 10:37:52;;;;;;;4.60;4.13;;;;;;;28.64;59.30;98979.78;5014562;28;20260;-62
2022/05/28 10:40:22;;;;;;;4.67;4.00;;;;;;;28.62;59.47;98955.41;5013530;28;20205;-62
2022/05/28 10:42:50;;;;;;;4.10;3.70;;;;;;;28.73;59.29;98970.06;5015017;28;20202;-62
2022/05/28 10:45:19;;;;;;;5.03;4.43;;;;;;;28.85;59.39;98974.81;5016198;28;20276;-62
2022/05/28 10:48:11;;;;;;;4.43;3.53;;;;;;;28.96;59.56;98965.66;5014940;28;20198;-62
2022/05/28 10:50:53;;;;;;;6.40;4.87;;;;;;;28.85;59.52;98961.63;5014187;28;20210;-62
2022/05/28 10:53:29;;;;;;;8.13;3.87;;;;;;;28.77;58.94;98952.91;5014205;28;20195;-62
2022/05/28 10:56:16;;;;;;;6.27;4.20;;;;;;;28.73;59.34;98967.41;5014587;28;20249;-62
2022/05/28 10:58:53;;;;;;;3.93;3.73;;;;;;;28.58;60.07;98951.47;5014021;28;20202;-62
2022/05/28 11:01:36;;;;;;;5.53;5.03;;;;;;;28.62;60.79;98956.25;5013551;28;20581;-62
2022/05/28 11:04:44;;;;;;;9.57;4.60;;;;;;;28.66;62.12;98972.56;5010850;28;20213;-62
2022/05/28 11:07:39;;;;;;;5.40;4.57;;;;;;;28.66;63.73;98962.00;5009471;28;20202;-62
2022/05/28 11:10:21;;;;;;;5.20;4.43;;;;;;;28.78;63.62;98950.09;5011576;28;20202;-62
2022/05/28 11:13:04;;;;;;;6.00;4.63;;;;;;;28.61;64.99;98940.56;5012648;28;20465;-65
2022/05/28 11:15:40;;;;;;;5.47;4.97;;;;;;;28.51;64.57;98934.69;5007081;28;20464;-64
2022/05/28 11:18:26;;;;;;;5.70;4.63;;;;;;;28.52;65.66;98923.16;5010294;28;20212;-64
2022/05/28 11:21:09;;;;;;;4.43;4.03;;;;;;;28.49;64.76;98907.66;5010259;28;20227;-64
2022/05/28 11:24:03;;;;;;;5.33;4.23;;;;;;;28.39;64.88;98907.06;5010615;28;20311;-64
2022/05/28 11:26:39;;;;;;;8.87;7.27;;;;;;;28.21;65.06;98907.25;5011148;28;20194;-64
2022/05/28 11:29:35;;;;;;;6.00;5.47;;;;;;;28.12;65.76;98917.03;5008752;28;20693;-65
2022/05/28 11:32:10;;;;;;;15.23;6.87;;;;;;;28.22;65.15;98913.38;5009989;28;20736;-66
2022/05/28 11:34:42;;;;;;;7.17;6.47;;;;;;;28.32;64.78;98914.81;5010217;28;20206;-66
2022/05/28 11:37:18;;;;;;;6.20;4.47;;;;;;;28.42;64.88;98917.25;5012003;28;20685;-68
2022/05/28 11:39:55;;;;;;;6.83;4.80;;;;;;;28.50;64.67;98919.84;5012804;28;20201;-68
2022/05/28 11:42:31;;;;;;;4.23;3.90;;;;;;;28.53;64.55;98912.41;5013613;28;20225;-67
2022/05/28 11:45:00;;;;;;;7.97;3.60;;;;;;;28.66;64.47;98919.78;5010843;28;20233;-67
2022/05/28 11:47:42;;;;;;;3.40;3.20;;;;;;;28.74;64.81;98911.84;5010863;28;20199;-66
2022/05/28 11:53:10;;;;;;;4.73;4.33;;;;;;;28.79;66.00;98904.22;5011277;28;20264;-66